sensor_id;sensor_type;location;lat;lon;timestamp;temperature;humidity
5429;DHT22;2737;52.386;9.980;2023-08-31T00:01:01;13.10;99.90
5429;DHT22;2737;52.386;9.980;2023-08-31T00:03:30;13.00;99.90
5429;DHT22;2737;52.386;9.980;2023-08-31T00:39:39;12.70;99.90
5429;DHT22;2737;52.386;9.980;2023-08-31T00:42:06;12.60;99.90
5429;DHT22;2737;52.386;9.980;2023-08-31T00:44:33;12.60;99.90
5429;DHT22;2737;52.386;9.980;2023-08-31T00:47:00;12.60;99.90
5429;DHT22;2737;52.386;9.980;2023-08-31T01:09:48;12.50;99.90
5429;DHT22;2737;52.386;9.980;2023-08-31T01:12:21;12.40;99.90
5429;DHT22;2737;52.386;9.980;2023-08-31T01:14:57;12.40;99.90
5429;DHT22;2737;52.386;9.980;2023-08-31T01:17:30;12.40;99.90
5429;DHT22;2737;52.386;9.980;2023-08-31T01:19:59;12.40;99.90
5429;DHT22;2737;52.386;9.980;2023-08-31T01:22:32;12.40;99.90
5429;DHT22;2737;52.386;9.980;2023-08-31T01:25:01;12.40;99.90
5429;DHT22;2737;52.386;9.980;2023-08-31T01:27:30;12.30;99.90
5429;DHT22;2737;52.386;9.980;2023-08-31T01:29:58;12.30;99.90
5429;DHT22;2737;52.386;9.980;2023-08-31T01:32:25;12.30;99.90
5429;DHT22;2737;52.386;9.980;2023-08-31T01:34:53;12.30;99.90
5429;DHT22;2737;52.386;9.980;2023-08-31T01:37:24;12.20;99.90
5429;DHT22;2737;52.386;9.980;2023-08-31T01:39:57;12.30;99.90
5429;DHT22;2737;52.386;9.980;2023-08-31T01:42:28;12.20;99.90
5429;DHT22;2737;52.386;9.980;2023-08-31T01:44:56;12.20;99.90
5429;DHT22;2737;52.386;9.980;2023-08-31T01:47:23;12.20;99.90
5429;DHT22;2737;52.386;9.980;2023-08-31T01:49:51;12.20;99.90
5429;DHT22;2737;52.386;9.980;2023-08-31T01:52:18;12.20;99.90
5429;DHT22;2737;52.386;9.980;2023-08-31T01:54:45;12.10;99.90
5429;DHT22;2737;52.386;9.980;2023-08-31T01:57:12;12.00;99.90
5429;DHT22;2737;52.386;9.980;2023-08-31T01:59:41;12.00;99.90
5429;DHT22;2737;52.386;9.980;2023-08-31T02:02:08;12.00;99.90
5429;DHT22;2737;52.386;9.980;2023-08-31T02:04:35;12.00;99.90
5429;DHT22;2737;52.386;9.980;2023-08-31T02:07:02;12.00;99.90
5429;DHT22;2737;52.386;9.980;2023-08-31T02:09:29;12.00;99.90
5429;DHT22;2737;52.386;9.980;2023-08-31T02:11:56;11.90;99.90
5429;DHT22;2737;52.386;9.980;2023-08-31T02:14:23;11.90;99.90
5429;DHT22;2737;52.386;9.980;2023-08-31T02:16:51;11.90;99.90
5429;DHT22;2737;52.386;9.980;2023-08-31T02:19:18;11.90;99.90
5429;DHT22;2737;52.386;9.980;2023-08-31T02:21:45;11.90;99.90
5429;DHT22;2737;52.386;9.980;2023-08-31T02:24:12;11.90;99.90
5429;DHT22;2737;52.386;9.980;2023-08-31T02:26:39;11.90;99.90
5429;DHT22;2737;52.386;9.980;2023-08-31T02:29:07;11.90;99.90
5429;DHT22;2737;52.386;9.980;2023-08-31T02:31:34;11.90;99.90
5429;DHT22;2737;52.386;9.980;2023-08-31T02:34:02;11.90;99.90
5429;DHT22;2737;52.386;9.980;2023-08-31T02:36:29;11.80;99.90
5429;DHT22;2737;52.386;9.980;2023-08-31T02:38:56;11.80;99.90
5429;DHT22;2737;52.386;9.980;2023-08-31T02:41:23;11.80;99.90
5429;DHT22;2737;52.386;9.980;2023-08-31T02:43:52;11.80;99.90
5429;DHT22;2737;52.386;9.980;2023-08-31T02:46:19;11.80;99.90
5429;DHT22;2737;52.386;9.980;2023-08-31T02:48:46;11.70;99.90
5429;DHT22;2737;52.386;9.980;2023-08-31T02:51:15;11.70;99.90
5429;DHT22;2737;52.386;9.980;2023-08-31T02:53:42;11.70;99.90
5429;DHT22;2737;52.386;9.980;2023-08-31T02:56:09;11.70;99.90
5429;DHT22;2737;52.386;9.980;2023-08-31T02:58:36;11.70;99.90
5429;DHT22;2737;52.386;9.980;2023-08-31T03:01:07;11.70;99.90
5429;DHT22;2737;52.386;9.980;2023-08-31T03:03:36;11.70;99.90
5429;DHT22;2737;52.386;9.980;2023-08-31T03:06:04;11.70;99.90
5429;DHT22;2737;52.386;9.980;2023-08-31T03:08:33;11.60;99.90
5429;DHT22;2737;52.386;9.980;2023-08-31T03:11:00;11.60;99.90
5429;DHT22;2737;52.386;9.980;2023-08-31T03:13:27;11.60;99.90
5429;DHT22;2737;52.386;9.980;2023-08-31T03:15:54;11.60;99.90
5429;DHT22;2737;52.386;9.980;2023-08-31T03:18:22;11.60;99.90
5429;DHT22;2737;52.386;9.980;2023-08-31T03:20:49;11.60;99.90
5429;DHT22;2737;52.386;9.980;2023-08-31T03:23:16;11.60;99.90
5429;DHT22;2737;52.386;9.980;2023-08-31T03:25:44;11.50;99.90
5429;DHT22;2737;52.386;9.980;2023-08-31T03:28:12;11.50;99.90
5429;DHT22;2737;52.386;9.980;2023-08-31T03:30:39;11.50;99.90
5429;DHT22;2737;52.386;9.980;2023-08-31T03:33:06;11.50;99.90
5429;DHT22;2737;52.386;9.980;2023-08-31T03:35:34;11.60;99.90
5429;DHT22;2737;52.386;9.980;2023-08-31T03:38:01;11.60;99.90
5429;DHT22;2737;52.386;9.980;2023-08-31T03:40:28;11.60;99.90
5429;DHT22;2737;52.386;9.980;2023-08-31T03:42:56;11.60;99.90
5429;DHT22;2737;52.386;9.980;2023-08-31T03:45:23;11.60;99.90
5429;DHT22;2737;52.386;9.980;2023-08-31T03:47:50;11.60;99.90
5429;DHT22;2737;52.386;9.980;2023-08-31T03:50:17;11.60;99.90
5429;DHT22;2737;52.386;9.980;2023-08-31T03:52:44;11.60;99.90
5429;DHT22;2737;52.386;9.980;2023-08-31T03:55:11;11.60;99.90
5429;DHT22;2737;52.386;9.980;2023-08-31T03:57:38;11.60;99.90
5429;DHT22;2737;52.386;9.980;2023-08-31T04:00:07;11.70;99.90
5429;DHT22;2737;52.386;9.980;2023-08-31T04:02:38;11.70;99.90
5429;DHT22;2737;52.386;9.980;2023-08-31T04:05:05;11.70;99.90
5429;DHT22;2737;52.386;9.980;2023-08-31T04:07:34;11.70;99.90
5429;DHT22;2737;52.386;9.980;2023-08-31T04:10:02;11.80;99.90
5429;DHT22;2737;52.386;9.980;2023-08-31T04:12:29;11.80;99.90
5429;DHT22;2737;52.386;9.980;2023-08-31T04:14:56;11.80;99.90
5429;DHT22;2737;52.386;9.980;2023-08-31T04:17:24;11.80;99.90
5429;DHT22;2737;52.386;9.980;2023-08-31T04:19:51;11.80;99.90
5429;DHT22;2737;52.386;9.980;2023-08-31T04:22:18;11.80;99.90
5429;DHT22;2737;52.386;9.980;2023-08-31T04:24:46;11.80;99.90
5429;DHT22;2737;52.386;9.980;2023-08-31T04:27:13;11.80;99.90
5429;DHT22;2737;52.386;9.980;2023-08-31T04:29:40;11.80;99.90
5429;DHT22;2737;52.386;9.980;2023-08-31T04:32:07;11.80;99.90
5429;DHT22;2737;52.386;9.980;2023-08-31T04:34:35;11.80;99.90
5429;DHT22;2737;52.386;9.980;2023-08-31T04:37:02;11.80;99.90
5429;DHT22;2737;52.386;9.980;2023-08-31T04:39:29;11.80;99.90
5429;DHT22;2737;52.386;9.980;2023-08-31T04:41:56;11.80;99.90
5429;DHT22;2737;52.386;9.980;2023-08-31T04:44:23;11.80;99.90
5429;DHT22;2737;52.386;9.980;2023-08-31T04:46:50;11.80;99.90
5429;DHT22;2737;52.386;9.980;2023-08-31T04:49:17;11.80;99.90
5429;DHT22;2737;52.386;9.980;2023-08-31T04:51:46;11.80;99.90
5429;DHT22;2737;52.386;9.980;2023-08-31T04:54:13;11.90;99.90
5429;DHT22;2737;52.386;9.980;2023-08-31T04:56:40;11.90;99.90
5429;DHT22;2737;52.386;9.980;2023-08-31T04:59:07;11.90;99.90
5429;DHT22;2737;52.386;9.980;2023-08-31T05:01:34;11.90;99.90
5429;DHT22;2737;52.386;9.980;2023-08-31T05:04:02;11.90;99.90
5429;DHT22;2737;52.386;9.980;2023-08-31T05:06:29;12.00;99.90
5429;DHT22;2737;52.386;9.980;2023-08-31T05:08:58;12.00;99.90
5429;DHT22;2737;52.386;9.980;2023-08-31T05:11:25;12.00;99.90
5429;DHT22;2737;52.386;9.980;2023-08-31T05:13:52;12.00;99.90
5429;DHT22;2737;52.386;9.980;2023-08-31T05:16:19;12.00;99.90
5429;DHT22;2737;52.386;9.980;2023-08-31T05:18:46;12.10;99.90
5429;DHT22;2737;52.386;9.980;2023-08-31T05:21:13;12.10;99.90
5429;DHT22;2737;52.386;9.980;2023-08-31T05:23:40;12.10;99.90
5429;DHT22;2737;52.386;9.980;2023-08-31T05:26:08;12.10;99.90
5429;DHT22;2737;52.386;9.980;2023-08-31T05:28:36;12.10;99.90
5429;DHT22;2737;52.386;9.980;2023-08-31T05:31:03;12.10;99.90
5429;DHT22;2737;52.386;9.980;2023-08-31T05:33:30;12.20;99.90
5429;DHT22;2737;52.386;9.980;2023-08-31T05:36:01;12.20;99.90
5429;DHT22;2737;52.386;9.980;2023-08-31T05:38:29;12.20;99.90
5429;DHT22;2737;52.386;9.980;2023-08-31T05:41:04;12.20;99.90
5429;DHT22;2737;52.386;9.980;2023-08-31T05:43:33;12.20;99.90
5429;DHT22;2737;52.386;9.980;2023-08-31T05:46:00;12.20;99.90
5429;DHT22;2737;52.386;9.980;2023-08-31T05:48:28;12.30;99.90
5429;DHT22;2737;52.386;9.980;2023-08-31T05:50:55;12.30;99.90
5429;DHT22;2737;52.386;9.980;2023-08-31T05:53:22;12.30;99.90
5429;DHT22;2737;52.386;9.980;2023-08-31T05:55:49;12.30;99.90
5429;DHT22;2737;52.386;9.980;2023-08-31T05:58:16;12.40;99.90
5429;DHT22;2737;52.386;9.980;2023-08-31T06:00:45;12.30;99.90
5429;DHT22;2737;52.386;9.980;2023-08-31T06:03:12;12.40;99.90
5429;DHT22;2737;52.386;9.980;2023-08-31T06:05:39;12.40;99.90
5429;DHT22;2737;52.386;9.980;2023-08-31T06:08:06;12.40;99.90
5429;DHT22;2737;52.386;9.980;2023-08-31T06:10:33;12.40;99.90
5429;DHT22;2737;52.386;9.980;2023-08-31T06:13:00;12.50;99.90
5429;DHT22;2737;52.386;9.980;2023-08-31T06:15:27;12.60;99.90
5429;DHT22;2737;52.386;9.980;2023-08-31T06:17:56;12.70;99.90
5429;DHT22;2737;52.386;9.980;2023-08-31T06:20:23;12.80;99.90
5429;DHT22;2737;52.386;9.980;2023-08-31T06:22:50;12.80;99.90
5429;DHT22;2737;52.386;9.980;2023-08-31T06:25:17;12.90;99.90
5429;DHT22;2737;52.386;9.980;2023-08-31T06:27:44;12.90;99.90
5429;DHT22;2737;52.386;9.980;2023-08-31T06:30:12;12.90;99.90
5429;DHT22;2737;52.386;9.980;2023-08-31T06:32:42;13.00;99.90
5429;DHT22;2737;52.386;9.980;2023-08-31T06:35:11;13.00;99.90
5429;DHT22;2737;52.386;9.980;2023-08-31T06:37:38;13.10;99.90
5429;DHT22;2737;52.386;9.980;2023-08-31T06:40:06;13.10;99.90
5429;DHT22;2737;52.386;9.980;2023-08-31T06:42:35;13.20;99.90
5429;DHT22;2737;52.386;9.980;2023-08-31T06:45:02;13.30;99.90
5429;DHT22;2737;52.386;9.980;2023-08-31T06:47:29;13.40;99.90
5429;DHT22;2737;52.386;9.980;2023-08-31T06:49:56;13.40;99.90
5429;DHT22;2737;52.386;9.980;2023-08-31T06:52:24;13.60;99.90
5429;DHT22;2737;52.386;9.980;2023-08-31T06:54:52;13.60;99.90
5429;DHT22;2737;52.386;9.980;2023-08-31T06:57:21;13.90;99.90
5429;DHT22;2737;52.386;9.980;2023-08-31T06:59:48;14.00;99.90
5429;DHT22;2737;52.386;9.980;2023-08-31T07:02:15;13.90;99.90
5429;DHT22;2737;52.386;9.980;2023-08-31T07:04:44;13.80;99.90
5429;DHT22;2737;52.386;9.980;2023-08-31T07:07:11;13.80;99.90
5429;DHT22;2737;52.386;9.980;2023-08-31T07:09:42;13.70;99.90
5429;DHT22;2737;52.386;9.980;2023-08-31T07:12:09;13.60;99.90
5429;DHT22;2737;52.386;9.980;2023-08-31T07:14:37;13.70;99.90
5429;DHT22;2737;52.386;9.980;2023-08-31T07:17:04;13.60;99.90
5429;DHT22;2737;52.386;9.980;2023-08-31T07:19:31;13.60;99.90
5429;DHT22;2737;52.386;9.980;2023-08-31T07:21:58;13.50;99.90
5429;DHT22;2737;52.386;9.980;2023-08-31T07:24:25;13.60;99.90
5429;DHT22;2737;52.386;9.980;2023-08-31T07:26:54;13.50;99.90
5429;DHT22;2737;52.386;9.980;2023-08-31T07:29:21;13.50;99.90
5429;DHT22;2737;52.386;9.980;2023-08-31T07:31:48;13.60;99.90
5429;DHT22;2737;52.386;9.980;2023-08-31T07:34:15;13.50;99.90
5429;DHT22;2737;52.386;9.980;2023-08-31T07:36:42;13.60;99.90
5429;DHT22;2737;52.386;9.980;2023-08-31T07:39:09;13.50;99.90
5429;DHT22;2737;52.386;9.980;2023-08-31T07:41:36;13.50;99.90
5429;DHT22;2737;52.386;9.980;2023-08-31T07:44:05;13.50;99.90
5429;DHT22;2737;52.386;9.980;2023-08-31T07:46:32;13.50;99.90
5429;DHT22;2737;52.386;9.980;2023-08-31T07:48:59;13.70;99.90
5429;DHT22;2737;52.386;9.980;2023-08-31T07:51:27;14.00;99.90
5429;DHT22;2737;52.386;9.980;2023-08-31T07:53:54;14.10;99.90
5429;DHT22;2737;52.386;9.980;2023-08-31T07:56:22;14.20;99.90
5429;DHT22;2737;52.386;9.980;2023-08-31T07:58:50;14.40;99.90
5429;DHT22;2737;52.386;9.980;2023-08-31T08:01:18;14.60;99.90
5429;DHT22;2737;52.386;9.980;2023-08-31T08:03:45;14.70;99.90
5429;DHT22;2737;52.386;9.980;2023-08-31T08:06:12;14.70;99.90
5429;DHT22;2737;52.386;9.980;2023-08-31T08:08:39;14.70;99.90
5429;DHT22;2737;52.386;9.980;2023-08-31T08:11:06;14.80;99.90
5429;DHT22;2737;52.386;9.980;2023-08-31T08:13:33;14.80;99.90
5429;DHT22;2737;52.386;9.980;2023-08-31T08:16:01;15.00;99.90
5429;DHT22;2737;52.386;9.980;2023-08-31T08:18:30;15.20;99.90
5429;DHT22;2737;52.386;9.980;2023-08-31T08:20:57;15.30;99.90
5429;DHT22;2737;52.386;9.980;2023-08-31T08:23:24;15.10;99.90
5429;DHT22;2737;52.386;9.980;2023-08-31T08:25:51;15.00;99.90
5429;DHT22;2737;52.386;9.980;2023-08-31T08:28:18;14.90;99.90
5429;DHT22;2737;52.386;9.980;2023-08-31T08:30:45;14.70;99.90
5429;DHT22;2737;52.386;9.980;2023-08-31T08:33:12;14.70;99.90
5429;DHT22;2737;52.386;9.980;2023-08-31T08:35:40;14.70;99.90
5429;DHT22;2737;52.386;9.980;2023-08-31T08:38:07;14.60;99.90
5429;DHT22;2737;52.386;9.980;2023-08-31T08:40:34;14.80;99.90
5429;DHT22;2737;52.386;9.980;2023-08-31T08:43:02;14.90;99.90
5429;DHT22;2737;52.386;9.980;2023-08-31T08:45:36;15.10;99.90
5429;DHT22;2737;52.386;9.980;2023-08-31T08:48:05;15.30;99.90
5429;DHT22;2737;52.386;9.980;2023-08-31T08:50:33;15.40;99.90
5429;DHT22;2737;52.386;9.980;2023-08-31T08:53:02;15.40;99.90
5429;DHT22;2737;52.386;9.980;2023-08-31T08:55:29;15.50;99.90
5429;DHT22;2737;52.386;9.980;2023-08-31T08:57:58;15.50;99.90
5429;DHT22;2737;52.386;9.980;2023-08-31T09:00:26;15.40;99.90
5429;DHT22;2737;52.386;9.980;2023-08-31T09:02:53;15.30;99.90
5429;DHT22;2737;52.386;9.980;2023-08-31T09:05:21;15.50;99.90
5429;DHT22;2737;52.386;9.980;2023-08-31T09:08:05;15.50;99.90
5429;DHT22;2737;52.386;9.980;2023-08-31T09:10:36;15.40;99.90
5429;DHT22;2737;52.386;9.980;2023-08-31T09:13:08;15.40;99.90
5429;DHT22;2737;52.386;9.980;2023-08-31T09:15:40;15.50;99.90
5429;DHT22;2737;52.386;9.980;2023-08-31T09:18:08;15.70;99.90
5429;DHT22;2737;52.386;9.980;2023-08-31T09:20:46;15.80;99.90
5429;DHT22;2737;52.386;9.980;2023-08-31T09:23:21;15.80;99.90
5429;DHT22;2737;52.386;9.980;2023-08-31T09:25:49;15.70;99.90
5429;DHT22;2737;52.386;9.980;2023-08-31T09:28:18;15.60;99.90
5429;DHT22;2737;52.386;9.980;2023-08-31T09:30:46;15.60;99.90
5429;DHT22;2737;52.386;9.980;2023-08-31T09:33:14;15.60;99.90
5429;DHT22;2737;52.386;9.980;2023-08-31T09:35:49;15.60;99.90
5429;DHT22;2737;52.386;9.980;2023-08-31T09:38:16;15.60;99.90
5429;DHT22;2737;52.386;9.980;2023-08-31T09:40:45;15.60;99.90
5429;DHT22;2737;52.386;9.980;2023-08-31T09:43:18;15.60;99.90
5429;DHT22;2737;52.386;9.980;2023-08-31T09:45:45;15.70;99.90
5429;DHT22;2737;52.386;9.980;2023-08-31T09:48:14;15.70;99.90
5429;DHT22;2737;52.386;9.980;2023-08-31T09:50:44;15.80;99.90
5429;DHT22;2737;52.386;9.980;2023-08-31T09:53:11;15.90;99.90
5429;DHT22;2737;52.386;9.980;2023-08-31T09:55:39;16.10;99.90
5429;DHT22;2737;52.386;9.980;2023-08-31T09:58:08;16.30;99.90
5429;DHT22;2737;52.386;9.980;2023-08-31T10:00:36;16.40;99.90
5429;DHT22;2737;52.386;9.980;2023-08-31T10:03:04;16.50;99.90
5429;DHT22;2737;52.386;9.980;2023-08-31T10:05:32;16.50;99.90
5429;DHT22;2737;52.386;9.980;2023-08-31T10:08:00;16.50;99.90
5429;DHT22;2737;52.386;9.980;2023-08-31T10:10:28;16.50;99.90
5429;DHT22;2737;52.386;9.980;2023-08-31T10:12:56;16.30;99.90
5429;DHT22;2737;52.386;9.980;2023-08-31T10:15:30;16.30;99.90
5429;DHT22;2737;52.386;9.980;2023-08-31T10:17:58;16.40;99.90
5429;DHT22;2737;52.386;9.980;2023-08-31T10:20:26;16.50;99.90
5429;DHT22;2737;52.386;9.980;2023-08-31T10:22:57;16.50;99.90
5429;DHT22;2737;52.386;9.980;2023-08-31T10:25:24;16.80;99.90
5429;DHT22;2737;52.386;9.980;2023-08-31T10:27:52;16.90;99.90
5429;DHT22;2737;52.386;9.980;2023-08-31T10:30:27;16.90;99.90
5429;DHT22;2737;52.386;9.980;2023-08-31T10:33:19;16.90;99.90
5429;DHT22;2737;52.386;9.980;2023-08-31T10:35:51;16.80;99.90
5429;DHT22;2737;52.386;9.980;2023-08-31T10:38:29;16.70;99.90
5429;DHT22;2737;52.386;9.980;2023-08-31T10:41:00;16.70;99.90
5429;DHT22;2737;52.386;9.980;2023-08-31T10:43:43;16.70;99.90
5429;DHT22;2737;52.386;9.980;2023-08-31T10:46:24;16.80;99.90
5429;DHT22;2737;52.386;9.980;2023-08-31T10:48:53;16.60;99.90
5429;DHT22;2737;52.386;9.980;2023-08-31T10:51:24;16.50;99.90
5429;DHT22;2737;52.386;9.980;2023-08-31T10:53:52;16.30;99.90
5429;DHT22;2737;52.386;9.980;2023-08-31T10:56:19;16.10;99.90
5429;DHT22;2737;52.386;9.980;2023-08-31T10:58:57;16.20;99.90
5429;DHT22;2737;52.386;9.980;2023-08-31T11:01:54;16.20;99.90
5429;DHT22;2737;52.386;9.980;2023-08-31T11:04:25;16.00;99.90
5429;DHT22;2737;52.386;9.980;2023-08-31T11:07:12;16.10;99.90
5429;DHT22;2737;52.386;9.980;2023-08-31T11:09:48;16.20;99.90
5429;DHT22;2737;52.386;9.980;2023-08-31T11:12:15;16.50;99.90
5429;DHT22;2737;52.386;9.980;2023-08-31T11:14:48;16.80;99.90
5429;DHT22;2737;52.386;9.980;2023-08-31T11:17:17;17.00;99.90
5429;DHT22;2737;52.386;9.980;2023-08-31T11:19:44;17.20;99.90
5429;DHT22;2737;52.386;9.980;2023-08-31T11:22:11;17.40;99.90
5429;DHT22;2737;52.386;9.980;2023-08-31T11:24:39;17.60;99.90
5429;DHT22;2737;52.386;9.980;2023-08-31T11:27:08;17.80;99.90
5429;DHT22;2737;52.386;9.980;2023-08-31T11:29:37;17.80;99.90
5429;DHT22;2737;52.386;9.980;2023-08-31T11:32:05;17.50;99.90
5429;DHT22;2737;52.386;9.980;2023-08-31T11:34:34;17.50;99.90
5429;DHT22;2737;52.386;9.980;2023-08-31T11:37:13;17.50;99.90
5429;DHT22;2737;52.386;9.980;2023-08-31T11:39:42;17.50;99.90
5429;DHT22;2737;52.386;9.980;2023-08-31T11:42:09;17.60;99.90
5429;DHT22;2737;52.386;9.980;2023-08-31T11:44:36;17.70;99.90
5429;DHT22;2737;52.386;9.980;2023-08-31T11:47:03;17.90;99.90
5429;DHT22;2737;52.386;9.980;2023-08-31T11:49:31;18.00;99.90
5429;DHT22;2737;52.386;9.980;2023-08-31T11:51:59;18.20;99.90
5429;DHT22;2737;52.386;9.980;2023-08-31T11:54:26;18.20;99.90
5429;DHT22;2737;52.386;9.980;2023-08-31T11:56:54;18.10;99.90
5429;DHT22;2737;52.386;9.980;2023-08-31T11:59:22;18.10;99.90
5429;DHT22;2737;52.386;9.980;2023-08-31T12:01:50;18.00;99.90
5429;DHT22;2737;52.386;9.980;2023-08-31T12:04:20;17.90;99.90
5429;DHT22;2737;52.386;9.980;2023-08-31T12:06:50;17.90;99.90
5429;DHT22;2737;52.386;9.980;2023-08-31T12:09:18;18.00;99.90
5429;DHT22;2737;52.386;9.980;2023-08-31T12:11:50;18.20;99.90
5429;DHT22;2737;52.386;9.980;2023-08-31T12:14:19;18.30;99.90
5429;DHT22;2737;52.386;9.980;2023-08-31T12:16:46;18.20;99.90
5429;DHT22;2737;52.386;9.980;2023-08-31T12:19:14;18.20;99.90
5429;DHT22;2737;52.386;9.980;2023-08-31T12:21:42;18.00;99.90
5429;DHT22;2737;52.386;9.980;2023-08-31T12:24:10;17.90;99.90
5429;DHT22;2737;52.386;9.980;2023-08-31T12:26:38;18.00;99.90
5429;DHT22;2737;52.386;9.980;2023-08-31T12:29:05;18.10;99.90
5429;DHT22;2737;52.386;9.980;2023-08-31T12:31:32;18.00;99.90
5429;DHT22;2737;52.386;9.980;2023-08-31T12:34:00;17.90;99.90
5429;DHT22;2737;52.386;9.980;2023-08-31T12:36:30;18.00;99.90
5429;DHT22;2737;52.386;9.980;2023-08-31T12:38:57;17.90;99.90
5429;DHT22;2737;52.386;9.980;2023-08-31T12:41:27;17.80;99.90
5429;DHT22;2737;52.386;9.980;2023-08-31T12:43:55;17.80;99.90
5429;DHT22;2737;52.386;9.980;2023-08-31T12:46:23;17.80;99.90
5429;DHT22;2737;52.386;9.980;2023-08-31T12:48:50;17.70;99.90
5429;DHT22;2737;52.386;9.980;2023-08-31T12:51:18;17.70;99.90
5429;DHT22;2737;52.386;9.980;2023-08-31T12:53:45;17.60;99.90
5429;DHT22;2737;52.386;9.980;2023-08-31T12:56:12;17.60;99.90
5429;DHT22;2737;52.386;9.980;2023-08-31T12:58:39;17.60;99.90
5429;DHT22;2737;52.386;9.980;2023-08-31T13:01:07;17.90;99.90
5429;DHT22;2737;52.386;9.980;2023-08-31T13:03:34;18.00;99.90
5429;DHT22;2737;52.386;9.980;2023-08-31T13:06:02;17.90;99.90
5429;DHT22;2737;52.386;9.980;2023-08-31T13:08:29;17.90;99.90
5429;DHT22;2737;52.386;9.980;2023-08-31T13:10:56;18.00;99.90
5429;DHT22;2737;52.386;9.980;2023-08-31T13:13:23;18.00;99.90
5429;DHT22;2737;52.386;9.980;2023-08-31T13:15:50;18.00;99.90
5429;DHT22;2737;52.386;9.980;2023-08-31T13:18:18;18.00;99.90
5429;DHT22;2737;52.386;9.980;2023-08-31T13:20:52;18.00;99.90
5429;DHT22;2737;52.386;9.980;2023-08-31T13:23:19;18.00;99.90
5429;DHT22;2737;52.386;9.980;2023-08-31T13:25:47;18.10;99.90
5429;DHT22;2737;52.386;9.980;2023-08-31T13:28:14;18.40;99.90
5429;DHT22;2737;52.386;9.980;2023-08-31T13:30:41;18.40;99.90
5429;DHT22;2737;52.386;9.980;2023-08-31T13:33:08;18.50;99.90
5429;DHT22;2737;52.386;9.980;2023-08-31T13:35:37;18.30;99.90
5429;DHT22;2737;52.386;9.980;2023-08-31T13:38:04;18.30;99.90
5429;DHT22;2737;52.386;9.980;2023-08-31T13:40:34;17.80;99.90
5429;DHT22;2737;52.386;9.980;2023-08-31T13:43:02;17.50;99.90
5429;DHT22;2737;52.386;9.980;2023-08-31T13:45:30;17.30;99.90
5429;DHT22;2737;52.386;9.980;2023-08-31T13:47:57;17.30;99.90
5429;DHT22;2737;52.386;9.980;2023-08-31T13:50:25;17.40;99.90
5429;DHT22;2737;52.386;9.980;2023-08-31T13:52:54;17.40;99.90
5429;DHT22;2737;52.386;9.980;2023-08-31T13:55:21;17.40;99.90
5429;DHT22;2737;52.386;9.980;2023-08-31T13:57:49;17.60;99.90
5429;DHT22;2737;52.386;9.980;2023-08-31T14:00:16;17.50;99.90
5429;DHT22;2737;52.386;9.980;2023-08-31T14:02:44;17.50;99.90
5429;DHT22;2737;52.386;9.980;2023-08-31T14:05:11;17.50;99.90
5429;DHT22;2737;52.386;9.980;2023-08-31T14:07:38;17.30;99.90
5429;DHT22;2737;52.386;9.980;2023-08-31T14:10:07;17.00;99.90
5429;DHT22;2737;52.386;9.980;2023-08-31T14:12:34;16.80;99.90
5429;DHT22;2737;52.386;9.980;2023-08-31T14:15:01;16.70;99.90
5429;DHT22;2737;52.386;9.980;2023-08-31T14:17:30;16.50;99.90
5429;DHT22;2737;52.386;9.980;2023-08-31T14:19:59;16.50;99.90
5429;DHT22;2737;52.386;9.980;2023-08-31T14:22:26;16.40;99.90
5429;DHT22;2737;52.386;9.980;2023-08-31T14:24:54;16.30;99.90
5429;DHT22;2737;52.386;9.980;2023-08-31T14:27:23;16.40;99.90
5429;DHT22;2737;52.386;9.980;2023-08-31T14:29:50;16.30;99.90
5429;DHT22;2737;52.386;9.980;2023-08-31T14:32:17;16.30;99.90
5429;DHT22;2737;52.386;9.980;2023-08-31T14:34:44;16.00;99.90
5429;DHT22;2737;52.386;9.980;2023-08-31T14:37:11;15.90;99.90
5429;DHT22;2737;52.386;9.980;2023-08-31T14:39:38;15.80;99.90
5429;DHT22;2737;52.386;9.980;2023-08-31T14:42:05;15.80;99.90
5429;DHT22;2737;52.386;9.980;2023-08-31T14:44:33;16.00;99.90
5429;DHT22;2737;52.386;9.980;2023-08-31T14:47:00;16.20;99.90
5429;DHT22;2737;52.386;9.980;2023-08-31T14:49:27;16.20;99.90
5429;DHT22;2737;52.386;9.980;2023-08-31T14:51:54;16.20;99.90
5429;DHT22;2737;52.386;9.980;2023-08-31T14:54:21;16.30;99.90
5429;DHT22;2737;52.386;9.980;2023-08-31T14:56:49;16.40;99.90
5429;DHT22;2737;52.386;9.980;2023-08-31T14:59:16;16.50;99.90
5429;DHT22;2737;52.386;9.980;2023-08-31T15:01:45;16.60;99.90
5429;DHT22;2737;52.386;9.980;2023-08-31T15:04:12;16.70;99.90
5429;DHT22;2737;52.386;9.980;2023-08-31T15:06:40;16.70;99.90
5429;DHT22;2737;52.386;9.980;2023-08-31T15:09:07;16.80;99.90
5429;DHT22;2737;52.386;9.980;2023-08-31T15:11:34;16.70;99.90
5429;DHT22;2737;52.386;9.980;2023-08-31T15:14:02;16.70;99.90
5429;DHT22;2737;52.386;9.980;2023-08-31T15:16:29;16.70;99.90
5429;DHT22;2737;52.386;9.980;2023-08-31T15:19:00;16.70;99.90
5429;DHT22;2737;52.386;9.980;2023-08-31T15:21:28;16.60;99.90
5429;DHT22;2737;52.386;9.980;2023-08-31T15:23:55;16.60;99.90
5429;DHT22;2737;52.386;9.980;2023-08-31T15:26:22;16.60;99.90
5429;DHT22;2737;52.386;9.980;2023-08-31T15:28:50;16.70;99.90
5429;DHT22;2737;52.386;9.980;2023-08-31T15:31:17;16.70;99.90
5429;DHT22;2737;52.386;9.980;2023-08-31T15:33:44;16.60;99.90
5429;DHT22;2737;52.386;9.980;2023-08-31T15:36:12;16.60;99.90
5429;DHT22;2737;52.386;9.980;2023-08-31T15:38:40;16.60;99.90
5429;DHT22;2737;52.386;9.980;2023-08-31T15:41:07;16.50;99.90
5429;DHT22;2737;52.386;9.980;2023-08-31T15:43:35;16.60;99.90
5429;DHT22;2737;52.386;9.980;2023-08-31T15:46:04;16.60;99.90
5429;DHT22;2737;52.386;9.980;2023-08-31T15:48:31;16.60;99.90
5429;DHT22;2737;52.386;9.980;2023-08-31T15:50:59;16.60;99.90
5429;DHT22;2737;52.386;9.980;2023-08-31T15:53:27;16.60;99.90
5429;DHT22;2737;52.386;9.980;2023-08-31T15:55:56;16.50;99.90
5429;DHT22;2737;52.386;9.980;2023-08-31T15:58:23;16.50;99.90
5429;DHT22;2737;52.386;9.980;2023-08-31T16:00:52;16.50;99.90
5429;DHT22;2737;52.386;9.980;2023-08-31T16:03:27;16.60;99.90
5429;DHT22;2737;52.386;9.980;2023-08-31T16:05:56;16.50;99.90
5429;DHT22;2737;52.386;9.980;2023-08-31T16:08:24;16.60;99.90
5429;DHT22;2737;52.386;9.980;2023-08-31T16:10:52;16.50;99.90
5429;DHT22;2737;52.386;9.980;2023-08-31T16:13:19;16.40;99.90
5429;DHT22;2737;52.386;9.980;2023-08-31T16:15:47;16.50;99.90
5429;DHT22;2737;52.386;9.980;2023-08-31T16:18:15;16.50;99.90
5429;DHT22;2737;52.386;9.980;2023-08-31T16:20:42;16.40;99.90
5429;DHT22;2737;52.386;9.980;2023-08-31T16:23:10;16.40;99.90
5429;DHT22;2737;52.386;9.980;2023-08-31T16:25:37;16.40;99.90
5429;DHT22;2737;52.386;9.980;2023-08-31T16:28:06;16.40;99.90
5429;DHT22;2737;52.386;9.980;2023-08-31T16:30:33;16.40;99.90
5429;DHT22;2737;52.386;9.980;2023-08-31T16:33:00;16.40;99.90
5429;DHT22;2737;52.386;9.980;2023-08-31T16:35:28;16.40;99.90
5429;DHT22;2737;52.386;9.980;2023-08-31T16:37:56;16.40;99.90
5429;DHT22;2737;52.386;9.980;2023-08-31T16:40:23;16.40;99.90
5429;DHT22;2737;52.386;9.980;2023-08-31T16:42:50;16.40;99.90
5429;DHT22;2737;52.386;9.980;2023-08-31T16:45:18;16.50;99.90
5429;DHT22;2737;52.386;9.980;2023-08-31T16:47:47;16.50;99.90
5429;DHT22;2737;52.386;9.980;2023-08-31T16:50:28;16.50;99.90
5429;DHT22;2737;52.386;9.980;2023-08-31T16:52:55;16.50;99.90
5429;DHT22;2737;52.386;9.980;2023-08-31T16:55:23;16.40;99.90
5429;DHT22;2737;52.386;9.980;2023-08-31T16:57:51;16.30;99.90
5429;DHT22;2737;52.386;9.980;2023-08-31T17:00:20;16.30;99.90
5429;DHT22;2737;52.386;9.980;2023-08-31T17:02:47;16.30;99.90